San Juan Enterprise — WDD9563 — position and weather

sailwx.info

Track history (hours):
 
Tides and Currents Weather Stations Pressure Air Temp Water Temp Dewpoint Dewpoint Depression Visibility Wind Speed Wind Dir Waves Ship Positions

San Juan Enterprise

Owner: SAN JUAN MARINE FREIGHT CO LLC, ANACORTES, WA. More information available from US FCC via Universal Licensing System and Coast Guard Vessel Documentation Center.

Last reported at 2017-Dec-16 16:56 UTC. Time now 2017-Dec-16 17:09 UTC.
Position N 48°31' W 122°36'.

Length 30 m.

MMSI: 367313160.

Date/timePositionNaut miles runAvg speedWind from/ knotsBaromVisibWave heightAir tempDewpointWater temp
2017-Dec-16 16:56N 48°31' W 122°36'0 0.0
2017-Dec-16 16:26N 48°31' W 122°36'0 0.0
2017-Dec-16 15:56N 48°31' W 122°36'0 0.0
2017-Dec-16 15:14N 48°31' W 122°36'0 0.0
2017-Dec-16 14:56N 48°31' W 122°36'0 0.0
2017-Dec-16 14:26N 48°31' W 122°36'0 0.0
2017-Dec-16 13:56N 48°31' W 122°36'0 0.0
2017-Dec-16 13:26N 48°31' W 122°36'0 0.0
2017-Dec-16 12:56N 48°31' W 122°36'0 0.0
2017-Dec-16 12:20N 48°31' W 122°36'0 0.0
2017-Dec-16 11:56N 48°31' W 122°36'0 0.0
2017-Dec-16 10:32N 48°31' W 122°36'0 0.0
2017-Dec-16 10:26N 48°31' W 122°36'0 0.0
2017-Dec-16 09:56N 48°31' W 122°36'0 0.0
2017-Dec-16 09:20N 48°31' W 122°36'0 0.0
2017-Dec-16 08:56N 48°31' W 122°36'0 0.0
2017-Dec-16 08:26N 48°31' W 122°36'0 0.0
2017-Dec-16 07:50N 48°31' W 122°36'0 0.0
2017-Dec-16 07:20N 48°31' W 122°36'0 0.0
2017-Dec-16 06:50N 48°31' W 122°36'0 0.0
2017-Dec-16 06:26N 48°31' W 122°36'0 0.0
2017-Dec-16 05:56N 48°31' W 122°36'0 0.0
2017-Dec-16 05:20N 48°31' W 122°36'0 0.0
2017-Dec-16 04:38N 48°31' W 122°36'0 0.0
2017-Dec-16 04:14N 48°31' W 122°36'0 0.0
2017-Dec-16 03:56N 48°31' W 122°36'0 0.0
2017-Dec-16 03:26N 48°31' W 122°36'0 0.0
2017-Dec-16 02:56N 48°31' W 122°36'0 0.0
2017-Dec-16 02:20N 48°31' W 122°36'0 0.0
2017-Dec-16 01:56N 48°31' W 122°36'0 0.0
2017-Dec-16 01:20N 48°31' W 122°36'0 0.0
2017-Dec-16 00:56N 48°31' W 122°36'0 0.0
2017-Dec-16 00:26N 48°31' W 122°36'0 0.0
2017-Dec-15 23:56N 48°31' W 122°36'0 0.0
2017-Dec-15 23:26N 48°31' W 122°36'0 0.0
2017-Dec-15 22:50N 48°31' W 122°36'0 0.0
2017-Dec-15 22:26N 48°31' W 122°36'0 0.0
2017-Dec-15 22:00N 48°31' W 122°36'2 4.5
2017-Dec-15 21:30N 48°31' W 122°40'4 8.9
2017-Dec-15 21:00N 48°31' W 122°46'5 8.8
2017-Dec-15 20:29N 48°34' W 122°52'4 8.2
2017-Dec-15 20:00N 48°32' W 122°57'2 3.6
2017-Dec-15 19:30N 48°32' W 123°00'0 0.0
2017-Dec-15 19:00N 48°32' W 123°00'0 0.0
2017-Dec-15 18:30N 48°32' W 123°00'3 5.6
2017-Dec-15 18:00N 48°33' W 122°56'4 7.2
2017-Dec-15 17:30N 48°33' W 122°51'4 7.4
2017-Dec-15 17:00N 48°32' W 122°45'4 8.9
2017-Dec-15 16:30N 48°32' W 122°39'2 3.4
2017-Dec-15 16:00N 48°31' W 122°36'0 0.0
2017-Dec-15 15:16N 48°31' W 122°36'0 0.0
2017-Dec-15 14:58N 48°31' W 122°36'0 0.0
2017-Dec-15 14:28N 48°31' W 122°36'0 0.0
2017-Dec-15 13:58N 48°31' W 122°36'0 0.0
2017-Dec-15 13:28N 48°31' W 122°36'0 0.0
2017-Dec-15 12:58N 48°31' W 122°36'0 0.0
2017-Dec-15 12:28N 48°31' W 122°36'0 0.0
2017-Dec-15 11:52N 48°31' W 122°36'0 0.0
2017-Dec-15 11:28N 48°31' W 122°36'0 0.0
2017-Dec-15 10:58N 48°31' W 122°36'0 0.0
2017-Dec-15 10:28N 48°31' W 122°36'0 0.0
2017-Dec-15 09:46N 48°31' W 122°36'0 0.0
2017-Dec-15 09:28N 48°31' W 122°36'0 0.0
2017-Dec-15 08:58N 48°31' W 122°36'0 0.0
2017-Dec-15 08:28N 48°31' W 122°36'0 0.0
2017-Dec-15 07:58N 48°31' W 122°36'0 0.0
2017-Dec-15 07:28N 48°31' W 122°36'0 0.0
2017-Dec-15 06:58N 48°31' W 122°36'0 0.0
2017-Dec-15 06:28N 48°31' W 122°36'0 0.0
2017-Dec-15 05:58N 48°31' W 122°36'0 0.0
2017-Dec-15 05:28N 48°31' W 122°36'0 0.0
2017-Dec-15 04:58N 48°31' W 122°36'0 0.0
2017-Dec-15 04:28N 48°31' W 122°36'0 0.0
2017-Dec-15 03:58N 48°31' W 122°36'0 0.0
2017-Dec-15 02:28N 48°31' W 122°36'0 0.0
2017-Dec-15 00:52N 48°31' W 122°36'0 0.0
2017-Dec-15 00:22N 48°31' W 122°36'0 0.0
2017-Dec-14 18:27N 48°31' W 122°36'0 0.0
2017-Dec-14 17:57N 48°31' W 122°36'0 0.0
2017-Dec-14 17:27N 48°31' W 122°36'0 0.0
2017-Dec-14 16:57N 48°31' W 122°36'0 0.0
2017-Dec-14 16:21N 48°31' W 122°36'0 0.0
2017-Dec-14 15:57N 48°31' W 122°36'0 0.0
2017-Dec-14 14:57N 48°31' W 122°36'0 0.0
2017-Dec-14 14:27N 48°31' W 122°36'0 0.0
2017-Dec-14 13:57N 48°31' W 122°36'0 0.0
2017-Dec-14 13:27N 48°31' W 122°36'0 0.0
2017-Dec-14 12:57N 48°31' W 122°36'0 0.0
2017-Dec-14 12:15N 48°31' W 122°36'0 0.0
2017-Dec-14 11:57N 48°31' W 122°36'0 0.0
2017-Dec-14 11:27N 48°31' W 122°36'0 0.0
2017-Dec-14 10:51N 48°31' W 122°36'0 0.0
2017-Dec-14 10:27N 48°31' W 122°36'0 0.0
2017-Dec-14 09:57N 48°31' W 122°36'0 0.0
2017-Dec-14 09:27N 48°31' W 122°36'0 0.0
2017-Dec-14 08:57N 48°31' W 122°36'0 0.0
2017-Dec-14 08:27N 48°31' W 122°36'0 0.0
2017-Dec-14 07:57N 48°31' W 122°36'0 0.0
2017-Dec-14 07:27N 48°31' W 122°36'0 0.0
2017-Dec-14 06:57N 48°31' W 122°36'0 0.0
2017-Dec-14 06:27N 48°31' W 122°36'0 0.0
2017-Dec-14 05:57N 48°31' W 122°36'0 0.0
2017-Dec-14 05:27N 48°31' W 122°36'0 0.0
2017-Dec-14 04:57N 48°31' W 122°36'0 0.0
2017-Dec-14 04:21N 48°31' W 122°36'0 0.0
2017-Dec-14 03:57N 48°31' W 122°36'0 0.0
2017-Dec-14 03:27N 48°31' W 122°36'0 0.0
2017-Dec-14 02:57N 48°31' W 122°36'0 0.0
2017-Dec-14 02:27N 48°31' W 122°36'0 0.0
2017-Dec-14 01:57N 48°31' W 122°36'0 0.0
2017-Dec-14 01:27N 48°31' W 122°36'0 0.0
2017-Dec-14 00:57N 48°31' W 122°36'0 0.0
2017-Dec-14 00:27N 48°31' W 122°36'0 0.0
2017-Dec-13 23:39N 48°31' W 122°36'0 0.0
2017-Dec-13 23:27N 48°31' W 122°36'0 0.0
2017-Dec-13 23:00N 48°31' W 122°36'1 2.3
2017-Dec-13 22:30N 48°31' W 122°38'4 8.4
2017-Dec-13 22:00N 48°32' W 122°44'4 8.2
2017-Dec-13 21:30N 48°33' W 122°50'3 6.9
2017-Dec-13 21:00N 48°33' W 122°55'3 6.8
2017-Dec-13 20:30N 48°32' W 123°00'0 0.2
2017-Dec-13 20:00N 48°32' W 122°60'0 0.0
2017-Dec-13 19:30N 48°32' W 122°60'0 0.0
2017-Dec-13 19:00N 48°32' W 122°60'0 0.1
2017-Dec-13 18:30N 48°32' W 122°60'4 8.1
2017-Dec-13 18:00N 48°33' W 122°54'3 6.9
2017-Dec-13 17:30N 48°33' W 122°49'4 8.4
2017-Dec-13 17:00N 48°32' W 122°43'4 8.6
2017-Dec-13 16:30N 48°31' W 122°37'0 0.4
2017-Dec-13 15:59N 48°31' W 122°36'0 0.0
2017-Dec-13 15:23N 48°31' W 122°36'0 0.0
2017-Dec-13 14:59N 48°31' W 122°36'0 0.0
2017-Dec-13 14:29N 48°31' W 122°36'0 0.0
2017-Dec-13 13:59N 48°31' W 122°36'0 0.0
2017-Dec-13 13:23N 48°31' W 122°36'0 0.0
2017-Dec-13 12:53N 48°31' W 122°36'0 0.0
2017-Dec-13 12:29N 48°31' W 122°36'0 0.0
2017-Dec-13 11:59N 48°31' W 122°36'0 0.0
2017-Dec-13 11:23N 48°31' W 122°36'0 0.0
2017-Dec-13 10:59N 48°31' W 122°36'0 0.0
2017-Dec-13 10:29N 48°31' W 122°36'0 0.0
2017-Dec-13 09:59N 48°31' W 122°36'0 0.0
2017-Dec-13 09:29N 48°31' W 122°36'0 0.0
2017-Dec-13 08:53N 48°31' W 122°36'0 0.0
2017-Dec-13 08:29N 48°31' W 122°36'0 0.0
2017-Dec-13 07:59N 48°31' W 122°36'0 0.0
2017-Dec-13 07:23N 48°31' W 122°36'0 0.0
2017-Dec-13 06:59N 48°31' W 122°36'0 0.0
2017-Dec-13 06:29N 48°31' W 122°36'0 0.0
2017-Dec-13 05:59N 48°31' W 122°36'0 0.0
2017-Dec-13 05:29N 48°31' W 122°36'0 0.0
2017-Dec-13 04:59N 48°31' W 122°36'0 0.0
2017-Dec-13 04:29N 48°31' W 122°36'0 0.0
2017-Dec-13 03:59N 48°31' W 122°36'0 0.0
2017-Dec-13 03:29N 48°31' W 122°36'0 0.0
2017-Dec-13 02:59N 48°31' W 122°36'0 0.0
2017-Dec-13 02:29N 48°31' W 122°36'0 0.0
2017-Dec-13 01:59N 48°31' W 122°36'0 0.0
2017-Dec-13 01:29N 48°31' W 122°36'0 0.0
2017-Dec-13 00:59N 48°31' W 122°36'2 3.2
2017-Dec-13 00:30N 48°32' W 122°39'4 7.7
2017-Dec-13 00:00N 48°31' W 122°45'2 3.3
2017-Dec-12 23:30N 48°31' W 122°47'5 9.4
2017-Dec-12 23:00N 48°32' W 122°40'2 4.7
2017-Dec-12 22:29N 48°31' W 122°36'0 0.0
2017-Dec-12 21:59N 48°31' W 122°36'0 0.0
2017-Dec-12 21:29N 48°31' W 122°36'0 0.0
2017-Dec-12 20:59N 48°31' W 122°36'0 0.0
2017-Dec-12 20:29N 48°31' W 122°36'0 0.0
2017-Dec-12 19:59N 48°31' W 122°36'1 1.1
2017-Dec-12 19:30N 48°31' W 122°37'5 9.2
2017-Dec-12 19:01N 48°32' W 122°44'4 8.4
2017-Dec-12 18:31N 48°35' W 122°48'0 0.8
2017-Dec-12 18:00N 48°35' W 122°49'4 7.7
2017-Dec-12 17:30N 48°32' W 122°47'2 3.5
2017-Dec-12 17:00N 48°31' W 122°44'4 8.2
2017-Dec-12 16:30N 48°31' W 122°38'1 2.5
2017-Dec-12 15:57N 48°31' W 122°36'0 0.1
2017-Dec-12 15:25N 48°31' W 122°36'0 0.0
2017-Dec-12 15:01N 48°31' W 122°36'0 0.0
2017-Dec-12 14:31N 48°31' W 122°36'0 0.0
2017-Dec-12 14:01N 48°31' W 122°36'0 0.0
2017-Dec-12 13:30N 48°31' W 122°36'0 0.0
2017-Dec-12 13:00N 48°31' W 122°36'0 0.0
2017-Dec-12 12:18N 48°31' W 122°36'0 0.0
2017-Dec-12 12:00N 48°31' W 122°36'0 0.0
2017-Dec-12 11:30N 48°31' W 122°36'0 0.0
2017-Dec-12 11:00N 48°31' W 122°36'0 0.0
2017-Dec-12 10:24N 48°31' W 122°36'0 0.0
2017-Dec-12 10:01N 48°31' W 122°36'0 0.0
2017-Dec-12 09:24N 48°31' W 122°36'0 0.0
2017-Dec-12 09:00N 48°31' W 122°36'0 0.0
2017-Dec-12 08:30N 48°31' W 122°36'0 0.0
2017-Dec-12 08:00N 48°31' W 122°36'0 0.0
2017-Dec-12 07:24N 48°31' W 122°36'0 0.0
2017-Dec-12 07:00N 48°31' W 122°36'0 0.0
2017-Dec-12 06:30N 48°31' W 122°36'0 0.0
2017-Dec-12 06:00N 48°31' W 122°36'0 0.0
2017-Dec-12 05:30N 48°31' W 122°36'0 0.0
2017-Dec-12 05:00N 48°31' W 122°36'0 0.0
2017-Dec-12 04:30N 48°31' W 122°36'0 0.0
2017-Dec-12 04:00N 48°31' W 122°36'0 0.0
2017-Dec-12 03:30N 48°31' W 122°36'0 0.0
2017-Dec-12 03:00N 48°31' W 122°36'0 0.0
2017-Dec-12 02:30N 48°31' W 122°36'0 0.0
2017-Dec-12 02:00N 48°31' W 122°36'0 0.0
2017-Dec-12 01:30N 48°31' W 122°36'0 0.0
2017-Dec-12 01:00N 48°31' W 122°36'0 0.7
2017-Dec-12 00:30N 48°31' W 122°37'2 3.2
2017-Dec-12 00:00N 48°31' W 122°39'2 4.8
2017-Dec-11 23:30N 48°29' W 122°41'5 8.5
2017-Dec-11 22:58N 48°24' W 122°39'3 6.1
2017-Dec-11 22:23N 48°24' W 122°34'2 0.9
2017-Dec-11 20:21N 48°25' W 122°36'2 5.9
2017-Dec-11 20:00N 48°25' W 122°39'4 7.9
2017-Dec-11 19:30N 48°28' W 122°41'3 5.3
2017-Dec-11 19:00N 48°31' W 122°40'2 3.8
2017-Dec-11 18:30N 48°31' W 122°37'0 0.0
2017-Dec-11 18:00N 48°31' W 122°37'0 0.0
2017-Dec-11 17:30N 48°31' W 122°37'0 0.5
2017-Dec-11 17:00N 48°31' W 122°37'0 0.2
2017-Dec-11 16:21N 48°31' W 122°36'0 0.0
2017-Dec-11 15:57N 48°31' W 122°36'0 0.0
2017-Dec-11 15:21N 48°31' W 122°36'0 0.0
2017-Dec-11 14:51N 48°31' W 122°36'0 0.0
2017-Dec-11 14:27N 48°31' W 122°36'0 0.0
2017-Dec-11 13:57N 48°31' W 122°36'0 0.0
2017-Dec-11 13:27N 48°31' W 122°36'0 0.0
2017-Dec-11 12:57N 48°31' W 122°36'0 0.0
2017-Dec-11 12:27N 48°31' W 122°36'0 0.0
2017-Dec-11 11:57N 48°31' W 122°36'0 0.0
2017-Dec-11 11:27N 48°31' W 122°36'0 0.0
2017-Dec-11 10:45N 48°31' W 122°36'0 0.0
2017-Dec-11 10:15N 48°31' W 122°36'0 0.0
2017-Dec-11 09:57N 48°31' W 122°36'0 0.0
2017-Dec-11 09:21N 48°31' W 122°36'0 0.0
2017-Dec-11 08:27N 48°31' W 122°36'0 0.0
2017-Dec-11 07:57N 48°31' W 122°36'0 0.0
2017-Dec-11 07:03N 48°31' W 122°36'0 0.0
2017-Dec-11 06:57N 48°31' W 122°36'0 0.0
2017-Dec-11 06:27N 48°31' W 122°36'0 0.0
2017-Dec-11 05:51N 48°31' W 122°36'0 0.0
2017-Dec-11 05:27N 48°31' W 122°36'0 0.0
2017-Dec-11 04:57N 48°31' W 122°36'0 0.0
2017-Dec-11 04:27N 48°31' W 122°36'0 0.0
2017-Dec-11 03:57N 48°31' W 122°36'0 0.0
2017-Dec-11 03:27N 48°31' W 122°36'0 0.0
2017-Dec-11 02:57N 48°31' W 122°36'0 0.0
2017-Dec-11 02:27N 48°31' W 122°36'0 0.0
2017-Dec-11 01:57N 48°31' W 122°36'0 0.0
2017-Dec-11 01:21N 48°31' W 122°36'0 0.0
2017-Dec-11 00:57N 48°31' W 122°36'0 0.0
2017-Dec-11 00:27N 48°31' W 122°36'0 0.0
2017-Dec-10 23:57N 48°31' W 122°36'0 0.0
2017-Dec-10 23:27N 48°31' W 122°36'0 0.0
2017-Dec-10 22:57N 48°31' W 122°36'0 0.0
2017-Dec-10 22:27N 48°31' W 122°36'0 0.0
2017-Dec-10 21:57N 48°31' W 122°36'0 0.0
2017-Dec-10 21:27N 48°31' W 122°36'0 0.0
2017-Dec-10 20:57N 48°31' W 122°36'0 0.0
2017-Dec-10 20:27N 48°31' W 122°36'0 0.0
2017-Dec-10 19:57N 48°31' W 122°36'0 0.0
2017-Dec-10 19:27N 48°31' W 122°36'0 0.0
2017-Dec-10 18:57N 48°31' W 122°36'0 0.0
2017-Dec-10 18:09N 48°31' W 122°36'0 0.0
2017-Dec-10 17:57N 48°31' W 122°36'0 0.0
2017-Dec-10 15:45N 48°31' W 122°36'0 0.0
2017-Dec-10 15:21N 48°31' W 122°36'0 0.0
2017-Dec-10 14:15N 48°31' W 122°36'0 0.0
2017-Dec-10 13:51N 48°31' W 122°36'0 0.0
2017-Dec-10 13:27N 48°31' W 122°36'0 0.0
2017-Dec-10 12:57N 48°31' W 122°36'0 0.0
2017-Dec-10 11:45N 48°31' W 122°36'0 0.0
2017-Dec-10 11:21N 48°31' W 122°36'0 0.0
2017-Dec-10 10:51N 48°31' W 122°36'0 0.0
2017-Dec-10 10:21N 48°31' W 122°36'0 0.0
2017-Dec-10 09:57N 48°31' W 122°36'0 0.0
2017-Dec-10 09:27N 48°31' W 122°36'0 0.0
2017-Dec-10 08:51N 48°31' W 122°36'0 0.0
2017-Dec-10 07:33N 48°31' W 122°36'0 0.0
2017-Dec-10 07:27N 48°31' W 122°36'0 0.0
2017-Dec-10 06:51N 48°31' W 122°36'0 0.0
2017-Dec-10 06:15N 48°31' W 122°36'0 0.0
2017-Dec-10 05:51N 48°31' W 122°36'0 0.0
2017-Dec-10 05:27N 48°31' W 122°36'0 0.0
2017-Dec-10 04:57N 48°31' W 122°36'0 0.0
2017-Dec-10 04:21N 48°31' W 122°36'0 0.0
2017-Dec-10 03:57N 48°31' W 122°36'0 0.0
2017-Dec-10 03:27N 48°31' W 122°36'0 0.0
2017-Dec-10 02:57N 48°31' W 122°36'0 0.0
2017-Dec-10 02:27N 48°31' W 122°36'0 0.0
2017-Dec-10 01:57N 48°31' W 122°36'0 0.0
2017-Dec-10 01:27N 48°31' W 122°36'0 0.0
2017-Dec-10 00:57N 48°31' W 122°36'0 0.0
2017-Dec-10 00:27N 48°31' W 122°36'0 0.0
2017-Dec-09 23:57N 48°31' W 122°36'0 0.0
2017-Dec-09 23:27N 48°31' W 122°36'0 0.0
2017-Dec-09 22:57N 48°31' W 122°36'0 0.0
2017-Dec-09 22:27N 48°31' W 122°36'0 0.0
2017-Dec-09 21:57N 48°31' W 122°36'0 0.0
2017-Dec-09 21:27N 48°31' W 122°36'0 0.0
2017-Dec-09 20:57N 48°31' W 122°36'0 0.0
2017-Dec-09 20:27N 48°31' W 122°36'0 0.0
2017-Dec-09 19:57N 48°31' W 122°36'0 0.0
2017-Dec-09 19:27N 48°31' W 122°36'0 0.0
2017-Dec-09 18:45N 48°31' W 122°36'0 0.0
2017-Dec-09 18:27N 48°31' W 122°36'0 0.0
2017-Dec-09 17:57N 48°31' W 122°36'0 0.0
2017-Dec-09 17:27N 48°31' W 122°36'0 0.0
2017-Dec-09 16:57N 48°31' W 122°36'0 0.0
2017-Dec-09 16:27N 48°31' W 122°36'0 0.0
2017-Dec-09 15:57N 48°31' W 122°36'0 0.0
2017-Dec-09 15:27N 48°31' W 122°36'0 0.0
2017-Dec-09 14:57N 48°31' W 122°36'0 0.0
2017-Dec-09 14:27N 48°31' W 122°36'0 0.0
2017-Dec-09 13:57N 48°31' W 122°36'0 0.0
2017-Dec-09 13:27N 48°31' W 122°36'0 0.0
2017-Dec-09 12:57N 48°31' W 122°36'0 0.0
2017-Dec-09 12:27N 48°31' W 122°36'0 0.0
2017-Dec-09 11:57N 48°31' W 122°36'0 0.0
2017-Dec-09 11:27N 48°31' W 122°36'0 0.0
2017-Dec-09 10:57N 48°31' W 122°36'0 0.0
2017-Dec-09 10:27N 48°31' W 122°36'0 0.0
2017-Dec-09 09:57N 48°31' W 122°36'0 0.0
2017-Dec-09 09:27N 48°31' W 122°36'0 0.0
2017-Dec-09 08:57N 48°31' W 122°36'0 0.0
2017-Dec-09 08:27N 48°31' W 122°36'0 0.0
2017-Dec-09 07:57N 48°31' W 122°36'0 0.0
2017-Dec-09 07:27N 48°31' W 122°36'0 0.0
2017-Dec-09 06:57N 48°31' W 122°36'0 0.0
2017-Dec-09 06:27N 48°31' W 122°36'0 0.0
2017-Dec-09 05:57N 48°31' W 122°36'0 0.0
2017-Dec-09 05:27N 48°31' W 122°36'0 0.0
2017-Dec-09 04:57N 48°31' W 122°36'0 0.0
2017-Dec-09 04:27N 48°31' W 122°36'0 0.0
2017-Dec-09 03:57N 48°31' W 122°36'0 0.0
2017-Dec-09 03:27N 48°31' W 122°36'0 0.0
2017-Dec-09 02:57N 48°31' W 122°36'0 0.0
2017-Dec-09 02:27N 48°31' W 122°36'0 0.0
2017-Dec-09 01:51N 48°31' W 122°36'0 0.0
2017-Dec-09 01:27N 48°31' W 122°36'0 0.0
2017-Dec-09 00:57N 48°31' W 122°36'0 0.0
2017-Dec-09 00:21N 48°31' W 122°36'0 0.0
2017-Dec-08 23:51N 48°31' W 122°36'0 0.0
2017-Dec-08 23:27N 48°31' W 122°36'0 0.0
2017-Dec-08 22:57N 48°31' W 122°36'0 0.0
2017-Dec-08 22:27N 48°31' W 122°36'0 0.0
2017-Dec-08 21:57N 48°31' W 122°36'0 0.0
2017-Dec-08 21:27N 48°31' W 122°36'0 0.0
2017-Dec-08 20:57N 48°31' W 122°36'0 0.0
2017-Dec-08 20:27N 48°31' W 122°36'0 0.0
2017-Dec-08 19:57N 48°31' W 122°36'0 0.0
2017-Dec-08 19:27N 48°31' W 122°36'0 0.0
2017-Dec-08 18:57N 48°31' W 122°36'0 0.0
2017-Dec-08 18:27N 48°31' W 122°36'0 0.0
2017-Dec-08 17:57N 48°31' W 122°36'0 0.0
2017-Dec-08 17:27N 48°31' W 122°36'0 0.0
2017-Dec-08 16:51N 48°31' W 122°36'0 0.0
2017-Dec-08 16:27N 48°31' W 122°36'0 0.0
2017-Dec-08 15:57N 48°31' W 122°36'0 0.0
2017-Dec-08 15:27N 48°31' W 122°36'0 0.0
2017-Dec-08 14:57N 48°31' W 122°36'0 0.0
2017-Dec-08 14:27N 48°31' W 122°36'0 0.0
2017-Dec-08 13:57N 48°31' W 122°36'0 0.0
2017-Dec-08 13:27N 48°31' W 122°36'0 0.0
2017-Dec-08 12:57N 48°31' W 122°36'0 0.0
2017-Dec-08 12:27N 48°31' W 122°36'0 0.0
2017-Dec-08 11:57N 48°31' W 122°36'0 0.0
2017-Dec-08 11:27N 48°31' W 122°36'0 0.0
2017-Dec-08 10:57N 48°31' W 122°36'0 0.0
2017-Dec-08 10:27N 48°31' W 122°36'0 0.0
2017-Dec-08 09:57N 48°31' W 122°36'0 0.0
2017-Dec-08 09:27N 48°31' W 122°36'0 0.0
2017-Dec-08 08:51N 48°31' W 122°36'0 0.0
2017-Dec-08 08:27N 48°31' W 122°36'0 0.0
2017-Dec-08 07:57N 48°31' W 122°36'0 0.0
2017-Dec-08 07:27N 48°31' W 122°36'0 0.0
2017-Dec-08 06:57N 48°31' W 122°36'0 0.0
2017-Dec-08 06:27N 48°31' W 122°36'0 0.0
2017-Dec-08 05:57N 48°31' W 122°36'0 0.0
2017-Dec-08 05:15N 48°31' W 122°36'0 0.0
2017-Dec-08 04:45N 48°31' W 122°36'0 0.0
2017-Dec-08 04:21N 48°31' W 122°36'0 0.0
2017-Dec-08 03:57N 48°31' W 122°36'0 0.0
2017-Dec-08 03:27N 48°31' W 122°36'0 0.0
2017-Dec-08 02:57N 48°31' W 122°36'0 0.0
2017-Dec-08 02:27N 48°31' W 122°36'0 0.0
2017-Dec-08 01:57N 48°31' W 122°36'0 0.0
2017-Dec-08 01:21N 48°31' W 122°36'0 0.0
2017-Dec-08 00:57N 48°31' W 122°36'0 0.0
2017-Dec-08 00:27N 48°31' W 122°36'0 0.0
2017-Dec-07 23:57N 48°31' W 122°36'0 0.0
2017-Dec-07 23:30N 48°31' W 122°36'0 0.0
2017-Dec-07 22:57N 48°31' W 122°36'0 0.0
2017-Dec-07 22:27N 48°31' W 122°36'0 0.0
2017-Dec-07 22:00N 48°31' W 122°36'0 0.1
2017-Dec-07 21:30N 48°31' W 122°36'3 6.2
2017-Dec-07 21:00N 48°32' W 122°41'4 8.7
2017-Dec-07 20:30N 48°34' W 122°46'2 3.8
2017-Dec-07 20:00N 48°35' W 122°49'1 2.0
2017-Dec-07 19:30N 48°36' W 122°49'1 2.0
2017-Dec-07 19:00N 48°35' W 122°49'0 0.0
2017-Dec-07 18:30N 48°35' W 122°49'0 1.0
2017-Dec-07 18:00N 48°36' W 122°49'2 4.6
2017-Dec-07 17:30N 48°35' W 122°46'4 7.7
2017-Dec-07 17:00N 48°32' W 122°42'4 7.6
2017-Dec-07 16:30N 48°31' W 122°36'0 0.1
2017-Dec-07 15:56N 48°31' W 122°36'0 0.0
2017-Dec-07 15:26N 48°31' W 122°36'0 0.0
2017-Dec-07 14:56N 48°31' W 122°36'0 0.0
2017-Dec-07 14:26N 48°31' W 122°36'0 0.0
2017-Dec-07 13:56N 48°31' W 122°36'0 0.0
2017-Dec-07 13:26N 48°31' W 122°36'0 0.0
2017-Dec-07 12:56N 48°31' W 122°36'0 0.0
2017-Dec-07 12:29N 48°31' W 122°36'0 0.0
2017-Dec-07 11:56N 48°31' W 122°36'0 0.0
2017-Dec-07 11:26N 48°31' W 122°36'0 0.0
2017-Dec-07 10:56N 48°31' W 122°36'0 0.0
2017-Dec-07 10:26N 48°31' W 122°36'0 0.0
2017-Dec-07 09:50N 48°31' W 122°36'0 0.0
2017-Dec-07 09:20N 48°31' W 122°36'0 0.0
2017-Dec-07 08:56N 48°31' W 122°36'0 0.0
2017-Dec-07 08:26N 48°31' W 122°36'0 0.0
2017-Dec-07 07:56N 48°31' W 122°36'0 0.0
2017-Dec-07 07:26N 48°31' W 122°36'0 0.0
2017-Dec-07 06:56N 48°31' W 122°36'0 0.0
2017-Dec-07 06:26N 48°31' W 122°36'0 0.0
2017-Dec-07 05:56N 48°31' W 122°36'0 0.0
2017-Dec-07 05:26N 48°31' W 122°36'0 0.0
2017-Dec-07 04:56N 48°31' W 122°36'0 0.0
2017-Dec-07 04:20N 48°31' W 122°36'0 0.0
2017-Dec-07 03:56N 48°31' W 122°36'0 0.0
2017-Dec-07 03:26N 48°31' W 122°36'0 0.0
2017-Dec-07 02:56N 48°31' W 122°36'0 0.0
2017-Dec-07 02:26N 48°31' W 122°36'0 0.0
2017-Dec-07 01:56N 48°31' W 122°36'0 0.0
2017-Dec-07 01:26N 48°31' W 122°36'0 0.0
2017-Dec-07 00:56N 48°31' W 122°36'0 0.0
2017-Dec-07 00:26N 48°31' W 122°36'0 0.0
2017-Dec-06 23:56N 48°31' W 122°36'0 0.0
2017-Dec-06 23:26N 48°31' W 122°36'0 0.0
2017-Dec-06 22:50N 48°31' W 122°36'0 0.0
2017-Dec-06 22:26N 48°31' W 122°36'0 0.0
2017-Dec-06 21:57N 48°31' W 122°36'2 4.2
2017-Dec-06 21:30N 48°32' W 122°39'4 9.0
2017-Dec-06 21:00N 48°32' W 122°46'  
Track history (hours):
 
Tides and Currents Weather Stations Pressure Air Temp Water Temp Dewpoint Dewpoint Depression Visibility Wind Speed Wind Dir Waves Ship Positions

San Juan Enterprise

Owner: SAN JUAN MARINE FREIGHT CO LLC, ANACORTES, WA. More information available from US FCC via Universal Licensing System and Coast Guard Vessel Documentation Center.

Last reported at 2017-Dec-16 16:56 UTC. Time now 2017-Dec-16 17:09 UTC.
Position N 48°31' W 122°36'.

Length 30 m.

MMSI: 367313160.

Date/timePositionNaut miles runAvg speedWind from/ knotsBaromVisibWave heightAir tempDewpointWater temp
2017-Dec-16 16:56N 48°31' W 122°36'0 0.0
2017-Dec-16 16:26N 48°31' W 122°36'0 0.0
2017-Dec-16 15:56N 48°31' W 122°36'0 0.0
2017-Dec-16 15:14N 48°31' W 122°36'0 0.0
2017-Dec-16 14:56N 48°31' W 122°36'0 0.0
2017-Dec-16 14:26N 48°31' W 122°36'0 0.0
2017-Dec-16 13:56N 48°31' W 122°36'0 0.0
2017-Dec-16 13:26N 48°31' W 122°36'0 0.0
2017-Dec-16 12:56N 48°31' W 122°36'0 0.0
2017-Dec-16 12:20N 48°31' W 122°36'0 0.0
2017-Dec-16 11:56N 48°31' W 122°36'0 0.0
2017-Dec-16 10:32N 48°31' W 122°36'0 0.0
2017-Dec-16 10:26N 48°31' W 122°36'0 0.0
2017-Dec-16 09:56N 48°31' W 122°36'0 0.0
2017-Dec-16 09:20N 48°31' W 122°36'0 0.0
2017-Dec-16 08:56N 48°31' W 122°36'0 0.0
2017-Dec-16 08:26N 48°31' W 122°36'0 0.0
2017-Dec-16 07:50N 48°31' W 122°36'0 0.0
2017-Dec-16 07:20N 48°31' W 122°36'0 0.0
2017-Dec-16 06:50N 48°31' W 122°36'0 0.0
2017-Dec-16 06:26N 48°31' W 122°36'0 0.0
2017-Dec-16 05:56N 48°31' W 122°36'0 0.0
2017-Dec-16 05:20N 48°31' W 122°36'0 0.0
2017-Dec-16 04:38N 48°31' W 122°36'0 0.0
2017-Dec-16 04:14N 48°31' W 122°36'0 0.0
2017-Dec-16 03:56N 48°31' W 122°36'0 0.0
2017-Dec-16 03:26N 48°31' W 122°36'0 0.0
2017-Dec-16 02:56N 48°31' W 122°36'0 0.0
2017-Dec-16 02:20N 48°31' W 122°36'0 0.0
2017-Dec-16 01:56N 48°31' W 122°36'0 0.0
2017-Dec-16 01:20N 48°31' W 122°36'0 0.0
2017-Dec-16 00:56N 48°31' W 122°36'0 0.0
2017-Dec-16 00:26N 48°31' W 122°36'0 0.0
2017-Dec-15 23:56N 48°31' W 122°36'0 0.0
2017-Dec-15 23:26N 48°31' W 122°36'0 0.0
2017-Dec-15 22:50N 48°31' W 122°36'0 0.0
2017-Dec-15 22:26N 48°31' W 122°36'0 0.0
2017-Dec-15 22:00N 48°31' W 122°36'2 4.5
2017-Dec-15 21:30N 48°31' W 122°40'4 8.9
2017-Dec-15 21:00N 48°31' W 122°46'5 8.8
2017-Dec-15 20:29N 48°34' W 122°52'4 8.2
2017-Dec-15 20:00N 48°32' W 122°57'2 3.6
2017-Dec-15 19:30N 48°32' W 123°00'0 0.0
2017-Dec-15 19:00N 48°32' W 123°00'0 0.0
2017-Dec-15 18:30N 48°32' W 123°00'3 5.6
2017-Dec-15 18:00N 48°33' W 122°56'4 7.2
2017-Dec-15 17:30N 48°33' W 122°51'4 7.4
2017-Dec-15 17:00N 48°32' W 122°45'4 8.9
2017-Dec-15 16:30N 48°32' W 122°39'2 3.4
2017-Dec-15 16:00N 48°31' W 122°36'0 0.0
2017-Dec-15 15:16N 48°31' W 122°36'0 0.0
2017-Dec-15 14:58N 48°31' W 122°36'0 0.0
2017-Dec-15 14:28N 48°31' W 122°36'0 0.0
2017-Dec-15 13:58N 48°31' W 122°36'0 0.0
2017-Dec-15 13:28N 48°31' W 122°36'0 0.0
2017-Dec-15 12:58N 48°31' W 122°36'0 0.0
2017-Dec-15 12:28N 48°31' W 122°36'0 0.0
2017-Dec-15 11:52N 48°31' W 122°36'0 0.0
2017-Dec-15 11:28N 48°31' W 122°36'0 0.0
2017-Dec-15 10:58N 48°31' W 122°36'0 0.0
2017-Dec-15 10:28N 48°31' W 122°36'0 0.0
2017-Dec-15 09:46N 48°31' W 122°36'0 0.0
2017-Dec-15 09:28N 48°31' W 122°36'0 0.0
2017-Dec-15 08:58N 48°31' W 122°36'0 0.0
2017-Dec-15 08:28N 48°31' W 122°36'0 0.0
2017-Dec-15 07:58N 48°31' W 122°36'0 0.0
2017-Dec-15 07:28N 48°31' W 122°36'0 0.0
2017-Dec-15 06:58N 48°31' W 122°36'0 0.0
2017-Dec-15 06:28N 48°31' W 122°36'0 0.0
2017-Dec-15 05:58N 48°31' W 122°36'0 0.0
2017-Dec-15 05:28N 48°31' W 122°36'0 0.0
2017-Dec-15 04:58N 48°31' W 122°36'0 0.0
2017-Dec-15 04:28N 48°31' W 122°36'0 0.0
2017-Dec-15 03:58N 48°31' W 122°36'0 0.0
2017-Dec-15 02:28N 48°31' W 122°36'0 0.0
2017-Dec-15 00:52N 48°31' W 122°36'0 0.0
2017-Dec-15 00:22N 48°31' W 122°36'0 0.0
2017-Dec-14 18:27N 48°31' W 122°36'0 0.0
2017-Dec-14 17:57N 48°31' W 122°36'0 0.0
2017-Dec-14 17:27N 48°31' W 122°36'0 0.0
2017-Dec-14 16:57N 48°31' W 122°36'0 0.0
2017-Dec-14 16:21N 48°31' W 122°36'0 0.0
2017-Dec-14 15:57N 48°31' W 122°36'0 0.0
2017-Dec-14 14:57N 48°31' W 122°36'0 0.0
2017-Dec-14 14:27N 48°31' W 122°36'0 0.0
2017-Dec-14 13:57N 48°31' W 122°36'0 0.0
2017-Dec-14 13:27N 48°31' W 122°36'0 0.0
2017-Dec-14 12:57N 48°31' W 122°36'0 0.0
2017-Dec-14 12:15N 48°31' W 122°36'0 0.0
2017-Dec-14 11:57N 48°31' W 122°36'0 0.0
2017-Dec-14 11:27N 48°31' W 122°36'0 0.0
2017-Dec-14 10:51N 48°31' W 122°36'0 0.0
2017-Dec-14 10:27N 48°31' W 122°36'0 0.0
2017-Dec-14 09:57N 48°31' W 122°36'0 0.0
2017-Dec-14 09:27N 48°31' W 122°36'0 0.0
2017-Dec-14 08:57N 48°31' W 122°36'0 0.0
2017-Dec-14 08:27N 48°31' W 122°36'0 0.0
2017-Dec-14 07:57N 48°31' W 122°36'0 0.0
2017-Dec-14 07:27N 48°31' W 122°36'0 0.0
2017-Dec-14 06:57N 48°31' W 122°36'0 0.0
2017-Dec-14 06:27N 48°31' W 122°36'0 0.0
2017-Dec-14 05:57N 48°31' W 122°36'0 0.0
2017-Dec-14 05:27N 48°31' W 122°36'0 0.0
2017-Dec-14 04:57N 48°31' W 122°36'0 0.0
2017-Dec-14 04:21N 48°31' W 122°36'0 0.0
2017-Dec-14 03:57N 48°31' W 122°36'0 0.0
2017-Dec-14 03:27N 48°31' W 122°36'0 0.0
2017-Dec-14 02:57N 48°31' W 122°36'0 0.0
2017-Dec-14 02:27N 48°31' W 122°36'0 0.0
2017-Dec-14 01:57N 48°31' W 122°36'0 0.0
2017-Dec-14 01:27N 48°31' W 122°36'0 0.0
2017-Dec-14 00:57N 48°31' W 122°36'0 0.0
2017-Dec-14 00:27N 48°31' W 122°36'0 0.0
2017-Dec-13 23:39N 48°31' W 122°36'0 0.0
2017-Dec-13 23:27N 48°31' W 122°36'0 0.0
2017-Dec-13 23:00N 48°31' W 122°36'1 2.3
2017-Dec-13 22:30N 48°31' W 122°38'4 8.4
2017-Dec-13 22:00N 48°32' W 122°44'4 8.2
2017-Dec-13 21:30N 48°33' W 122°50'3 6.9
2017-Dec-13 21:00N 48°33' W 122°55'3 6.8
2017-Dec-13 20:30N 48°32' W 123°00'0 0.2
2017-Dec-13 20:00N 48°32' W 122°60'0 0.0
2017-Dec-13 19:30N 48°32' W 122°60'0 0.0
2017-Dec-13 19:00N 48°32' W 122°60'0 0.1
2017-Dec-13 18:30N 48°32' W 122°60'4 8.1
2017-Dec-13 18:00N 48°33' W 122°54'3 6.9
2017-Dec-13 17:30N 48°33' W 122°49'4 8.4
2017-Dec-13 17:00N 48°32' W 122°43'4 8.6
2017-Dec-13 16:30N 48°31' W 122°37'0 0.4
2017-Dec-13 15:59N 48°31' W 122°36'0 0.0
2017-Dec-13 15:23N 48°31' W 122°36'0 0.0
2017-Dec-13 14:59N 48°31' W 122°36'0 0.0
2017-Dec-13 14:29N 48°31' W 122°36'0 0.0
2017-Dec-13 13:59N 48°31' W 122°36'0 0.0
2017-Dec-13 13:23N 48°31' W 122°36'0 0.0
2017-Dec-13 12:53N 48°31' W 122°36'0 0.0
2017-Dec-13 12:29N 48°31' W 122°36'0 0.0
2017-Dec-13 11:59N 48°31' W 122°36'0 0.0
2017-Dec-13 11:23N 48°31' W 122°36'0 0.0
2017-Dec-13 10:59N 48°31' W 122°36'0 0.0
2017-Dec-13 10:29N 48°31' W 122°36'0 0.0
2017-Dec-13 09:59N 48°31' W 122°36'0 0.0
2017-Dec-13 09:29N 48°31' W 122°36'0 0.0
2017-Dec-13 08:53N 48°31' W 122°36'0 0.0
2017-Dec-13 08:29N 48°31' W 122°36'0 0.0
2017-Dec-13 07:59N 48°31' W 122°36'0 0.0
2017-Dec-13 07:23N 48°31' W 122°36'0 0.0
2017-Dec-13 06:59N 48°31' W 122°36'0 0.0
2017-Dec-13 06:29N 48°31' W 122°36'0 0.0
2017-Dec-13 05:59N 48°31' W 122°36'0 0.0
2017-Dec-13 05:29N 48°31' W 122°36'0 0.0
2017-Dec-13 04:59N 48°31' W 122°36'0 0.0
2017-Dec-13 04:29N 48°31' W 122°36'0 0.0
2017-Dec-13 03:59N 48°31' W 122°36'0 0.0
2017-Dec-13 03:29N 48°31' W 122°36'0 0.0
2017-Dec-13 02:59N 48°31' W 122°36'0 0.0
2017-Dec-13 02:29N 48°31' W 122°36'0 0.0
2017-Dec-13 01:59N 48°31' W 122°36'0 0.0
2017-Dec-13 01:29N 48°31' W 122°36'0 0.0
2017-Dec-13 00:59N 48°31' W 122°36'2 3.2
2017-Dec-13 00:30N 48°32' W 122°39'4 7.7
2017-Dec-13 00:00N 48°31' W 122°45'2 3.3
2017-Dec-12 23:30N 48°31' W 122°47'5 9.4
2017-Dec-12 23:00N 48°32' W 122°40'2 4.7
2017-Dec-12 22:29N 48°31' W 122°36'0 0.0
2017-Dec-12 21:59N 48°31' W 122°36'0 0.0
2017-Dec-12 21:29N 48°31' W 122°36'0 0.0
2017-Dec-12 20:59N 48°31' W 122°36'0 0.0
2017-Dec-12 20:29N 48°31' W 122°36'0 0.0
2017-Dec-12 19:59N 48°31' W 122°36'1 1.1
2017-Dec-12 19:30N 48°31' W 122°37'5 9.2
2017-Dec-12 19:01N 48°32' W 122°44'4 8.4
2017-Dec-12 18:31N 48°35' W 122°48'0 0.8
2017-Dec-12 18:00N 48°35' W 122°49'4 7.7
2017-Dec-12 17:30N 48°32' W 122°47'2 3.5
2017-Dec-12 17:00N 48°31' W 122°44'4 8.2
2017-Dec-12 16:30N 48°31' W 122°38'1 2.5
2017-Dec-12 15:57N 48°31' W 122°36'0 0.1
2017-Dec-12 15:25N 48°31' W 122°36'0 0.0
2017-Dec-12 15:01N 48°31' W 122°36'0 0.0
2017-Dec-12 14:31N 48°31' W 122°36'0 0.0
2017-Dec-12 14:01N 48°31' W 122°36'0 0.0
2017-Dec-12 13:30N 48°31' W 122°36'0 0.0
2017-Dec-12 13:00N 48°31' W 122°36'0 0.0
2017-Dec-12 12:18N 48°31' W 122°36'0 0.0
2017-Dec-12 12:00N 48°31' W 122°36'0 0.0
2017-Dec-12 11:30N 48°31' W 122°36'0 0.0
2017-Dec-12 11:00N 48°31' W 122°36'0 0.0
2017-Dec-12 10:24N 48°31' W 122°36'0 0.0
2017-Dec-12 10:01N 48°31' W 122°36'0 0.0
2017-Dec-12 09:24N 48°31' W 122°36'0 0.0
2017-Dec-12 09:00N 48°31' W 122°36'0 0.0
2017-Dec-12 08:30N 48°31' W 122°36'0 0.0
2017-Dec-12 08:00N 48°31' W 122°36'0 0.0
2017-Dec-12 07:24N 48°31' W 122°36'0 0.0
2017-Dec-12 07:00N 48°31' W 122°36'0 0.0
2017-Dec-12 06:30N 48°31' W 122°36'0 0.0
2017-Dec-12 06:00N 48°31' W 122°36'0 0.0
2017-Dec-12 05:30N 48°31' W 122°36'0 0.0
2017-Dec-12 05:00N 48°31' W 122°36'0 0.0
2017-Dec-12 04:30N 48°31' W 122°36'0 0.0
2017-Dec-12 04:00N 48°31' W 122°36'0 0.0
2017-Dec-12 03:30N 48°31' W 122°36'0 0.0
2017-Dec-12 03:00N 48°31' W 122°36'0 0.0
2017-Dec-12 02:30N 48°31' W 122°36'0 0.0
2017-Dec-12 02:00N 48°31' W 122°36'0 0.0
2017-Dec-12 01:30N 48°31' W 122°36'0 0.0
2017-Dec-12 01:00N 48°31' W 122°36'0 0.7
2017-Dec-12 00:30N 48°31' W 122°37'2 3.2
2017-Dec-12 00:00N 48°31' W 122°39'2 4.8
2017-Dec-11 23:30N 48°29' W 122°41'5 8.5
2017-Dec-11 22:58N 48°24' W 122°39'3 6.1
2017-Dec-11 22:23N 48°24' W 122°34'2 0.9
2017-Dec-11 20:21N 48°25' W 122°36'2 5.9
2017-Dec-11 20:00N 48°25' W 122°39'4 7.9
2017-Dec-11 19:30N 48°28' W 122°41'3 5.3
2017-Dec-11 19:00N 48°31' W 122°40'2 3.8
2017-Dec-11 18:30N 48°31' W 122°37'0 0.0
2017-Dec-11 18:00N 48°31' W 122°37'0 0.0
2017-Dec-11 17:30N 48°31' W 122°37'0 0.5
2017-Dec-11 17:00N 48°31' W 122°37'0 0.2
2017-Dec-11 16:21N 48°31' W 122°36'0 0.0
2017-Dec-11 15:57N 48°31' W 122°36'0 0.0
2017-Dec-11 15:21N 48°31' W 122°36'0 0.0
2017-Dec-11 14:51N 48°31' W 122°36'0 0.0
2017-Dec-11 14:27N 48°31' W 122°36'0 0.0
2017-Dec-11 13:57N 48°31' W 122°36'0 0.0
2017-Dec-11 13:27N 48°31' W 122°36'0 0.0
2017-Dec-11 12:57N 48°31' W 122°36'0 0.0
2017-Dec-11 12:27N 48°31' W 122°36'0 0.0
2017-Dec-11 11:57N 48°31' W 122°36'0 0.0
2017-Dec-11 11:27N 48°31' W 122°36'0 0.0
2017-Dec-11 10:45N 48°31' W 122°36'0 0.0
2017-Dec-11 10:15N 48°31' W 122°36'0 0.0
2017-Dec-11 09:57N 48°31' W 122°36'0 0.0
2017-Dec-11 09:21N 48°31' W 122°36'0 0.0
2017-Dec-11 08:27N 48°31' W 122°36'0 0.0
2017-Dec-11 07:57N 48°31' W 122°36'0 0.0
2017-Dec-11 07:03N 48°31' W 122°36'0 0.0
2017-Dec-11 06:57N 48°31' W 122°36'0 0.0
2017-Dec-11 06:27N 48°31' W 122°36'0 0.0
2017-Dec-11 05:51N 48°31' W 122°36'0 0.0
2017-Dec-11 05:27N 48°31' W 122°36'0 0.0
2017-Dec-11 04:57N 48°31' W 122°36'0 0.0
2017-Dec-11 04:27N 48°31' W 122°36'0 0.0
2017-Dec-11 03:57N 48°31' W 122°36'0 0.0
2017-Dec-11 03:27N 48°31' W 122°36'0 0.0
2017-Dec-11 02:57N 48°31' W 122°36'0 0.0
2017-Dec-11 02:27N 48°31' W 122°36'0 0.0
2017-Dec-11 01:57N 48°31' W 122°36'0 0.0
2017-Dec-11 01:21N 48°31' W 122°36'0 0.0
2017-Dec-11 00:57N 48°31' W 122°36'0 0.0
2017-Dec-11 00:27N 48°31' W 122°36'0 0.0
2017-Dec-10 23:57N 48°31' W 122°36'0 0.0
2017-Dec-10 23:27N 48°31' W 122°36'0 0.0
2017-Dec-10 22:57N 48°31' W 122°36'0 0.0
2017-Dec-10 22:27N 48°31' W 122°36'0 0.0
2017-Dec-10 21:57N 48°31' W 122°36'0 0.0
2017-Dec-10 21:27N 48°31' W 122°36'0 0.0
2017-Dec-10 20:57N 48°31' W 122°36'0 0.0
2017-Dec-10 20:27N 48°31' W 122°36'0 0.0
2017-Dec-10 19:57N 48°31' W 122°36'0 0.0
2017-Dec-10 19:27N 48°31' W 122°36'0 0.0
2017-Dec-10 18:57N 48°31' W 122°36'0 0.0
2017-Dec-10 18:09N 48°31' W 122°36'0 0.0
2017-Dec-10 17:57N 48°31' W 122°36'0 0.0
2017-Dec-10 15:45N 48°31' W 122°36'0 0.0
2017-Dec-10 15:21N 48°31' W 122°36'0 0.0
2017-Dec-10 14:15N 48°31' W 122°36'0 0.0
2017-Dec-10 13:51N 48°31' W 122°36'0 0.0
2017-Dec-10 13:27N 48°31' W 122°36'0 0.0
2017-Dec-10 12:57N 48°31' W 122°36'0 0.0
2017-Dec-10 11:45N 48°31' W 122°36'0 0.0
2017-Dec-10 11:21N 48°31' W 122°36'0 0.0
2017-Dec-10 10:51N 48°31' W 122°36'0 0.0
2017-Dec-10 10:21N 48°31' W 122°36'0 0.0
2017-Dec-10 09:57N 48°31' W 122°36'0 0.0
2017-Dec-10 09:27N 48°31' W 122°36'0 0.0
2017-Dec-10 08:51N 48°31' W 122°36'0 0.0
2017-Dec-10 07:33N 48°31' W 122°36'0 0.0
2017-Dec-10 07:27N 48°31' W 122°36'0 0.0
2017-Dec-10 06:51N 48°31' W 122°36'0 0.0
2017-Dec-10 06:15N 48°31' W 122°36'0 0.0
2017-Dec-10 05:51N 48°31' W 122°36'0 0.0
2017-Dec-10 05:27N 48°31' W 122°36'0 0.0
2017-Dec-10 04:57N 48°31' W 122°36'0 0.0
2017-Dec-10 04:21N 48°31' W 122°36'0 0.0
2017-Dec-10 03:57N 48°31' W 122°36'0 0.0
2017-Dec-10 03:27N 48°31' W 122°36'0 0.0
2017-Dec-10 02:57N 48°31' W 122°36'0 0.0
2017-Dec-10 02:27N 48°31' W 122°36'0 0.0
2017-Dec-10 01:57N 48°31' W 122°36'0 0.0
2017-Dec-10 01:27N 48°31' W 122°36'0 0.0
2017-Dec-10 00:57N 48°31' W 122°36'0 0.0
2017-Dec-10 00:27N 48°31' W 122°36'0 0.0
2017-Dec-09 23:57N 48°31' W 122°36'0 0.0
2017-Dec-09 23:27N 48°31' W 122°36'0 0.0
2017-Dec-09 22:57N 48°31' W 122°36'0 0.0
2017-Dec-09 22:27N 48°31' W 122°36'0 0.0
2017-Dec-09 21:57N 48°31' W 122°36'0 0.0
2017-Dec-09 21:27N 48°31' W 122°36'0 0.0
2017-Dec-09 20:57N 48°31' W 122°36'0 0.0
2017-Dec-09 20:27N 48°31' W 122°36'0 0.0
2017-Dec-09 19:57N 48°31' W 122°36'0 0.0
2017-Dec-09 19:27N 48°31' W 122°36'0 0.0
2017-Dec-09 18:45N 48°31' W 122°36'0 0.0
2017-Dec-09 18:27N 48°31' W 122°36'0 0.0
2017-Dec-09 17:57N 48°31' W 122°36'0 0.0
2017-Dec-09 17:27N 48°31' W 122°36'0 0.0
2017-Dec-09 16:57N 48°31' W 122°36'0 0.0
2017-Dec-09 16:27N 48°31' W 122°36'0 0.0
2017-Dec-09 15:57N 48°31' W 122°36'0 0.0
2017-Dec-09 15:27N 48°31' W 122°36'0 0.0
2017-Dec-09 14:57N 48°31' W 122°36'0 0.0
2017-Dec-09 14:27N 48°31' W 122°36'0 0.0
2017-Dec-09 13:57N 48°31' W 122°36'0 0.0
2017-Dec-09 13:27N 48°31' W 122°36'0 0.0
2017-Dec-09 12:57N 48°31' W 122°36'0 0.0
2017-Dec-09 12:27N 48°31' W 122°36'0 0.0
2017-Dec-09 11:57N 48°31' W 122°36'0 0.0
2017-Dec-09 11:27N 48°31' W 122°36'0 0.0
2017-Dec-09 10:57N 48°31' W 122°36'0 0.0
2017-Dec-09 10:27N 48°31' W 122°36'0 0.0
2017-Dec-09 09:57N 48°31' W 122°36'0 0.0
2017-Dec-09 09:27N 48°31' W 122°36'0 0.0
2017-Dec-09 08:57N 48°31' W 122°36'0 0.0
2017-Dec-09 08:27N 48°31' W 122°36'0 0.0
2017-Dec-09 07:57N 48°31' W 122°36'0 0.0
2017-Dec-09 07:27N 48°31' W 122°36'0 0.0
2017-Dec-09 06:57N 48°31' W 122°36'0 0.0
2017-Dec-09 06:27N 48°31' W 122°36'0 0.0
2017-Dec-09 05:57N 48°31' W 122°36'0 0.0
2017-Dec-09 05:27N 48°31' W 122°36'0 0.0
2017-Dec-09 04:57N 48°31' W 122°36'0 0.0
2017-Dec-09 04:27N 48°31' W 122°36'0 0.0
2017-Dec-09 03:57N 48°31' W 122°36'0 0.0
2017-Dec-09 03:27N 48°31' W 122°36'0 0.0
2017-Dec-09 02:57N 48°31' W 122°36'0 0.0
2017-Dec-09 02:27N 48°31' W 122°36'0 0.0
2017-Dec-09 01:51N 48°31' W 122°36'0 0.0
2017-Dec-09 01:27N 48°31' W 122°36'0 0.0
2017-Dec-09 00:57N 48°31' W 122°36'0 0.0
2017-Dec-09 00:21N 48°31' W 122°36'0 0.0
2017-Dec-08 23:51N 48°31' W 122°36'0 0.0
2017-Dec-08 23:27N 48°31' W 122°36'0 0.0
2017-Dec-08 22:57N 48°31' W 122°36'0 0.0
2017-Dec-08 22:27N 48°31' W 122°36'0 0.0
2017-Dec-08 21:57N 48°31' W 122°36'0 0.0
2017-Dec-08 21:27N 48°31' W 122°36'0 0.0
2017-Dec-08 20:57N 48°31' W 122°36'0 0.0
2017-Dec-08 20:27N 48°31' W 122°36'0 0.0
2017-Dec-08 19:57N 48°31' W 122°36'0 0.0
2017-Dec-08 19:27N 48°31' W 122°36'0 0.0
2017-Dec-08 18:57N 48°31' W 122°36'0 0.0
2017-Dec-08 18:27N 48°31' W 122°36'0 0.0
2017-Dec-08 17:57N 48°31' W 122°36'0 0.0
2017-Dec-08 17:27N 48°31' W 122°36'0 0.0
2017-Dec-08 16:51N 48°31' W 122°36'0 0.0
2017-Dec-08 16:27N 48°31' W 122°36'0 0.0
2017-Dec-08 15:57N 48°31' W 122°36'0 0.0
2017-Dec-08 15:27N 48°31' W 122°36'0 0.0
2017-Dec-08 14:57N 48°31' W 122°36'0 0.0
2017-Dec-08 14:27N 48°31' W 122°36'0 0.0
2017-Dec-08 13:57N 48°31' W 122°36'0 0.0
2017-Dec-08 13:27N 48°31' W 122°36'0 0.0
2017-Dec-08 12:57N 48°31' W 122°36'0 0.0
2017-Dec-08 12:27N 48°31' W 122°36'0 0.0
2017-Dec-08 11:57N 48°31' W 122°36'0 0.0
2017-Dec-08 11:27N 48°31' W 122°36'0 0.0
2017-Dec-08 10:57N 48°31' W 122°36'0 0.0
2017-Dec-08 10:27N 48°31' W 122°36'0 0.0
2017-Dec-08 09:57N 48°31' W 122°36'0 0.0
2017-Dec-08 09:27N 48°31' W 122°36'0 0.0
2017-Dec-08 08:51N 48°31' W 122°36'0 0.0
2017-Dec-08 08:27N 48°31' W 122°36'0 0.0
2017-Dec-08 07:57N 48°31' W 122°36'0 0.0
2017-Dec-08 07:27N 48°31' W 122°36'0 0.0
2017-Dec-08 06:57N 48°31' W 122°36'0 0.0
2017-Dec-08 06:27N 48°31' W 122°36'0 0.0
2017-Dec-08 05:57N 48°31' W 122°36'0 0.0
2017-Dec-08 05:15N 48°31' W 122°36'0 0.0
2017-Dec-08 04:45N 48°31' W 122°36'0 0.0
2017-Dec-08 04:21N 48°31' W 122°36'0 0.0
2017-Dec-08 03:57N 48°31' W 122°36'0 0.0
2017-Dec-08 03:27N 48°31' W 122°36'0 0.0
2017-Dec-08 02:57N 48°31' W 122°36'0 0.0
2017-Dec-08 02:27N 48°31' W 122°36'0 0.0
2017-Dec-08 01:57N 48°31' W 122°36'0 0.0
2017-Dec-08 01:21N 48°31' W 122°36'0 0.0
2017-Dec-08 00:57N 48°31' W 122°36'0 0.0
2017-Dec-08 00:27N 48°31' W 122°36'0 0.0
2017-Dec-07 23:57N 48°31' W 122°36'0 0.0
2017-Dec-07 23:30N 48°31' W 122°36'0 0.0
2017-Dec-07 22:57N 48°31' W 122°36'0 0.0
2017-Dec-07 22:27N 48°31' W 122°36'0 0.0
2017-Dec-07 22:00N 48°31' W 122°36'0 0.1
2017-Dec-07 21:30N 48°31' W 122°36'3 6.2
2017-Dec-07 21:00N 48°32' W 122°41'4 8.7
2017-Dec-07 20:30N 48°34' W 122°46'2 3.8
2017-Dec-07 20:00N 48°35' W 122°49'1 2.0
2017-Dec-07 19:30N 48°36' W 122°49'1 2.0
2017-Dec-07 19:00N 48°35' W 122°49'0 0.0
2017-Dec-07 18:30N 48°35' W 122°49'0 1.0
2017-Dec-07 18:00N 48°36' W 122°49'2 4.6
2017-Dec-07 17:30N 48°35' W 122°46'4 7.7
2017-Dec-07 17:00N 48°32' W 122°42'4 7.6
2017-Dec-07 16:30N 48°31' W 122°36'0 0.1
2017-Dec-07 15:56N 48°31' W 122°36'0 0.0
2017-Dec-07 15:26N 48°31' W 122°36'0 0.0
2017-Dec-07 14:56N 48°31' W 122°36'0 0.0
2017-Dec-07 14:26N 48°31' W 122°36'0 0.0
2017-Dec-07 13:56N 48°31' W 122°36'0 0.0
2017-Dec-07 13:26N 48°31' W 122°36'0 0.0
2017-Dec-07 12:56N 48°31' W 122°36'0 0.0
2017-Dec-07 12:29N 48°31' W 122°36'0 0.0
2017-Dec-07 11:56N 48°31' W 122°36'0 0.0
2017-Dec-07 11:26N 48°31' W 122°36'0 0.0
2017-Dec-07 10:56N 48°31' W 122°36'0 0.0
2017-Dec-07 10:26N 48°31' W 122°36'0 0.0
2017-Dec-07 09:50N 48°31' W 122°36'0 0.0
2017-Dec-07 09:20N 48°31' W 122°36'0 0.0
2017-Dec-07 08:56N 48°31' W 122°36'0 0.0
2017-Dec-07 08:26N 48°31' W 122°36'0 0.0
2017-Dec-07 07:56N 48°31' W 122°36'0 0.0
2017-Dec-07 07:26N 48°31' W 122°36'0 0.0
2017-Dec-07 06:56N 48°31' W 122°36'0 0.0
2017-Dec-07 06:26N 48°31' W 122°36'0 0.0
2017-Dec-07 05:56N 48°31' W 122°36'0 0.0
2017-Dec-07 05:26N 48°31' W 122°36'0 0.0
2017-Dec-07 04:56N 48°31' W 122°36'0 0.0
2017-Dec-07 04:20N 48°31' W 122°36'0 0.0
2017-Dec-07 03:56N 48°31' W 122°36'0 0.0
2017-Dec-07 03:26N 48°31' W 122°36'0 0.0
2017-Dec-07 02:56N 48°31' W 122°36'0 0.0
2017-Dec-07 02:26N 48°31' W 122°36'0 0.0
2017-Dec-07 01:56N 48°31' W 122°36'0 0.0
2017-Dec-07 01:26N 48°31' W 122°36'0 0.0
2017-Dec-07 00:56N 48°31' W 122°36'0 0.0
2017-Dec-07 00:26N 48°31' W 122°36'0 0.0
2017-Dec-06 23:56N 48°31' W 122°36'0 0.0
2017-Dec-06 23:26N 48°31' W 122°36'0 0.0
2017-Dec-06 22:50N 48°31' W 122°36'0 0.0
2017-Dec-06 22:26N 48°31' W 122°36'0 0.0
2017-Dec-06 21:57N 48°31' W 122°36'2 4.2
2017-Dec-06 21:30N 48°32' W 122°39'4 9.0
2017-Dec-06 21:00N 48°32' W 122°46'  

Dump ship's entire track history